Time;durP1;ratioP1;P1;durP2;ratioP2;P2;SDS_P1;SDS_P2;PMS_P1;PMS_P2;Temp;Humidity;BMP_temperature;BMP_pressure;BME280_temperature;BME280_humidity;BME280_pressure;Samples;Min_cycle;Max_cycle;Signal;HPM_P1;HPM_P2
2021/04/30 00:01:14;;;;;;;15.50;11.87;;;8.70;99.90;;;;;;5052857;28;20172;-72
2021/04/30 00:03:40;;;;;;;15.30;11.07;;;8.70;99.90;;;;;;5052834;28;20194;-73
2021/04/30 00:06:06;;;;;;;13.27;10.47;;;8.60;99.90;;;;;;5053274;28;20177;-72
2021/04/30 00:08:31;;;;;;;12.93;10.90;;;8.60;99.90;;;;;;5051983;28;20679;-72
2021/04/30 00:10:57;;;;;;;14.17;11.10;;;8.60;99.90;;;;;;5052799;28;20174;-71
2021/04/30 00:13:23;;;;;;;16.07;11.73;;;8.60;99.90;;;;;;5053072;28;20172;-71
2021/04/30 00:15:48;;;;;;;14.10;10.87;;;8.50;99.90;;;;;;5053386;28;20415;-71
2021/04/30 00:18:14;;;;;;;13.90;10.43;;;8.60;99.90;;;;;;5052600;28;20176;-72
2021/04/30 00:20:47;;;;;;;15.20;11.50;;;8.60;99.90;;;;;;5053440;28;20212;-72
2021/04/30 00:23:12;;;;;;;14.17;11.37;;;8.50;99.90;;;;;;5057034;28;20155;-72
2021/04/30 00:25:39;;;;;;;13.37;11.97;;;8.50;99.90;;;;;;5056676;28;20419;-72
2021/04/30 00:28:05;;;;;;;13.00;11.63;;;8.40;99.90;;;;;;5056139;28;20174;-71
2021/04/30 00:30:31;;;;;;;14.60;12.90;;;8.20;99.90;;;;;;5055156;28;20459;-72
2021/04/30 00:32:57;;;;;;;23.33;13.40;;;8.20;99.90;;;;;;5055468;28;20506;-71
2021/04/30 00:35:23;;;;;;;16.03;13.10;;;8.20;99.90;;;;;;5056566;28;20174;-71
2021/04/30 00:37:48;;;;;;;17.20;13.17;;;8.20;99.90;;;;;;5054590;28;20459;-72
2021/04/30 00:40:14;;;;;;;19.07;12.90;;;8.20;99.90;;;;;;5056406;28;20194;-72
2021/04/30 00:42:40;;;;;;;16.00;14.20;;;8.00;99.90;;;;;;5056349;28;20183;-72
2021/04/30 00:45:07;;;;;;;15.73;12.77;;;7.90;99.90;;;;;;5056500;28;20199;-72
2021/04/30 00:47:36;;;;;;;18.77;13.47;;;7.80;99.90;;;;;;5055809;28;20282;-72
2021/04/30 00:50:07;;;;;;;17.03;14.00;;;8.00;99.90;;;;;;5056171;28;20524;-72
2021/04/30 00:52:35;;;;;;;19.20;12.87;;;8.10;99.90;;;;;;5055981;28;20428;-72
2021/04/30 00:55:02;;;;;;;15.47;13.27;;;8.20;99.90;;;;;;5056246;28;20867;-72
2021/04/30 00:57:28;;;;;;;14.10;12.60;;;8.30;99.90;;;;;;5055214;28;20463;-72
2021/04/30 00:59:54;;;;;;;15.03;12.40;;;8.30;99.90;;;;;;5056145;28;20457;-72
2021/04/30 01:02:20;;;;;;;16.27;13.30;;;8.20;99.90;;;;;;5055815;28;20480;-71
2021/04/30 01:04:46;;;;;;;15.13;12.40;;;8.10;99.90;;;;;;5055989;28;20757;-71
2021/04/30 01:07:11;;;;;;;20.80;14.27;;;8.20;99.90;;;;;;5055193;28;20203;-71
2021/04/30 01:09:37;;;;;;;14.70;12.80;;;8.20;99.90;;;;;;5055264;28;20219;-73
2021/04/30 01:12:04;;;;;;;17.07;12.27;;;8.20;99.90;;;;;;5055800;28;20169;-72
2021/04/30 01:14:30;;;;;;;14.67;12.10;;;8.20;99.90;;;;;;5055773;28;20639;-72
2021/04/30 01:16:55;;;;;;;16.00;13.07;;;8.10;99.90;;;;;;5055747;28;20454;-72
2021/04/30 01:19:24;;;;;;;13.93;11.80;;;8.20;99.90;;;;;;5055435;28;20429;-72
2021/04/30 01:21:55;;;;;;;16.07;12.27;;;8.20;99.90;;;;;;5055653;28;20243;-72
2021/04/30 01:24:21;;;;;;;16.27;12.27;;;8.30;99.90;;;;;;5055646;28;20424;-72
2021/04/30 01:26:47;;;;;;;17.53;13.40;;;8.40;99.90;;;;;;5055554;28;20401;-72
2021/04/30 01:29:12;;;;;;;19.30;13.50;;;8.30;99.90;;;;;;5054362;28;20882;-72
2021/04/30 01:31:38;;;;;;;14.87;11.73;;;8.20;99.90;;;;;;5054372;28;20191;-72
2021/04/30 01:34:04;;;;;;;21.23;12.40;;;8.20;99.90;;;;;;5054550;28;20189;-72
2021/04/30 01:36:31;;;;;;;17.10;13.00;;;8.30;99.90;;;;;;5055289;28;20732;-71
2021/04/30 01:38:58;;;;;;;19.07;13.27;;;8.40;99.90;;;;;;5054778;28;20549;-72
2021/04/30 01:41:24;;;;;;;15.60;13.50;;;8.30;99.90;;;;;;5055395;28;20446;-72
2021/04/30 01:43:50;;;;;;;17.70;13.47;;;8.30;99.90;;;;;;5055409;28;20441;-72
2021/04/30 01:46:16;;;;;;;18.03;13.00;;;8.40;99.90;;;;;;5054630;28;20207;-72
2021/04/30 01:48:41;;;;;;;18.03;14.03;;;8.40;99.90;;;;;;5054584;28;20645;-72
2021/04/30 01:51:07;;;;;;;15.93;12.83;;;8.40;99.90;;;;;;5053800;28;20460;-71
2021/04/30 01:53:35;;;;;;;14.10;12.63;;;8.40;99.90;;;;;;5054970;28;20176;-71
2021/04/30 01:56:04;;;;;;;15.80;13.07;;;8.20;99.90;;;;;;5054557;28;20559;-71
2021/04/30 01:58:29;;;;;;;17.43;12.70;;;8.30;99.90;;;;;;5054456;28;20416;-72
2021/04/30 02:00:56;;;;;;;14.13;12.57;;;8.30;99.90;;;;;;5054722;28;20415;-71
2021/04/30 02:03:22;;;;;;;17.07;12.70;;;8.30;99.90;;;;;;5054764;28;20170;-71
2021/04/30 02:05:48;;;;;;;17.80;13.13;;;8.40;99.90;;;;;;5054864;28;20423;-71
2021/04/30 02:08:15;;;;;;;14.83;13.20;;;8.40;99.90;;;;;;5053920;28;20499;-71
2021/04/30 02:10:42;;;;;;;20.30;14.60;;;8.40;99.90;;;;;;5053615;28;20221;-72
2021/04/30 02:13:08;;;;;;;16.40;13.33;;;8.40;99.90;;;;;;5054533;28;20462;-72
2021/04/30 02:15:40;;;;;;;17.13;13.70;;;8.40;99.90;;;;;;5054511;28;20408;-72
2021/04/30 02:18:05;;;;;;;18.63;15.03;;;8.10;99.90;;;;;;5053700;28;20216;-72
2021/04/30 02:20:32;;;;;;;15.70;14.00;;;8.00;99.90;;;;;;5053985;28;20425;-72
2021/04/30 02:22:58;;;;;;;16.40;14.70;;;7.90;99.90;;;;;;5054428;28;20514;-71
2021/04/30 02:25:24;;;;;;;16.50;14.13;;;8.00;99.90;;;;;;5054327;28;20407;-72
2021/04/30 02:27:51;;;;;;;17.20;14.17;;;7.90;99.90;;;;;;5053721;28;20459;-71
2021/04/30 02:30:19;;;;;;;23.03;14.87;;;7.90;99.90;;;;;;5054128;28;20456;-72
2021/04/30 02:32:46;;;;;;;19.67;14.97;;;7.90;99.90;;;;;;5049168;28;20441;-71
2021/04/30 02:35:16;;;;;;;20.50;14.30;;;7.90;99.90;;;;;;5053826;28;20423;-71
2021/04/30 02:37:44;;;;;;;17.10;14.90;;;7.90;99.90;;;;;;5053365;28;20468;-72
2021/04/30 02:40:12;;;;;;;19.00;15.70;;;8.00;99.90;;;;;;5053912;28;20864;-71
2021/04/30 02:42:38;;;;;;;17.23;15.43;;;7.90;99.90;;;;;;5053607;28;20416;-72
2021/04/30 02:45:06;;;;;;;19.80;15.40;;;7.90;99.90;;;;;;5053566;28;20427;-72
2021/04/30 02:47:33;;;;;;;19.10;15.27;;;7.90;99.90;;;;;;5053785;28;20419;-71
2021/04/30 02:49:59;;;;;;;20.83;15.53;;;7.90;99.90;;;;;;5053985;28;20442;-72
2021/04/30 02:52:25;;;;;;;17.00;15.13;;;8.00;99.90;;;;;;5053976;28;20456;-72
2021/04/30 02:54:51;;;;;;;19.23;15.37;;;8.00;99.90;;;;;;5052788;28;20416;-72
2021/04/30 02:57:18;;;;;;;16.33;13.73;;;8.10;99.90;;;;;;5053188;28;20465;-72
2021/04/30 02:59:43;;;;;;;16.57;14.60;;;8.00;99.90;;;;;;5053215;28;20456;-70
2021/04/30 03:02:09;;;;;;;16.13;14.43;;;8.00;99.90;;;;;;5053935;28;20777;-72
2021/04/30 03:04:35;;;;;;;17.37;14.33;;;8.00;99.90;;;;;;5053546;28;20192;-71
2021/04/30 03:07:01;;;;;;;16.10;14.40;;;8.10;99.90;;;;;;5053022;28;20448;-71
2021/04/30 03:09:26;;;;;;;17.10;13.77;;;8.10;99.90;;;;;;5041091;28;20462;-71
2021/04/30 03:11:52;;;;;;;16.33;14.70;;;8.10;99.90;;;;;;5049556;28;20656;-71
2021/04/30 03:14:17;;;;;;;18.47;15.17;;;8.10;99.90;;;;;;5053778;28;20595;-71
2021/04/30 03:16:43;;;;;;;17.87;14.73;;;8.00;99.90;;;;;;5053673;28;20663;-71
2021/04/30 03:19:09;;;;;;;16.10;14.50;;;8.00;99.90;;;;;;5053143;28;20201;-71
2021/04/30 03:21:36;;;;;;;15.60;14.00;;;8.00;99.90;;;;;;5053273;28;20202;-71
2021/04/30 03:24:02;;;;;;;17.13;15.30;;;7.80;99.90;;;;;;5053615;28;20476;-71
2021/04/30 03:26:28;;;;;;;16.30;14.60;;;7.80;99.90;;;;;;5053489;28;20451;-71
2021/04/30 03:28:53;;;;;;;18.73;16.57;;;7.80;99.90;;;;;;5052894;28;20510;-71
2021/04/30 03:31:19;;;;;;;18.80;14.00;;;7.80;99.90;;;;;;5052929;28;20236;-71
2021/04/30 03:33:44;;;;;;;17.10;15.10;;;7.90;99.90;;;;;;5052964;28;20206;-71
2021/04/30 03:36:10;;;;;;;16.23;14.63;;;7.90;99.90;;;;;;5053432;28;20213;-71
2021/04/30 03:38:36;;;;;;;17.70;14.70;;;7.80;99.90;;;;;;5053218;28;20265;-71
2021/04/30 03:41:01;;;;;;;18.67;15.80;;;7.80;99.90;;;;;;5053454;28;20650;-71
2021/04/30 03:43:27;;;;;;;17.23;15.47;;;7.60;99.90;;;;;;5052778;28;20502;-71
2021/04/30 03:45:53;;;;;;;18.50;16.30;;;7.60;99.90;;;;;;5053176;28;20541;-71
2021/04/30 03:48:19;;;;;;;19.27;15.20;;;7.70;99.90;;;;;;5052907;28;20185;-71
2021/04/30 03:50:45;;;;;;;17.63;15.73;;;7.70;99.90;;;;;;5053497;28;20170;-71
2021/04/30 03:53:11;;;;;;;17.43;15.70;;;7.70;99.90;;;;;;5051701;28;20419;-71
2021/04/30 03:55:37;;;;;;;22.53;16.83;;;7.80;99.90;;;;;;5052381;28;20184;-71
2021/04/30 03:58:03;;;;;;;20.50;17.43;;;7.80;99.90;;;;;;5048357;28;20472;-72
2021/04/30 04:00:28;;;;;;;18.63;16.60;;;7.70;99.90;;;;;;5037404;28;20206;-72
2021/04/30 04:02:54;;;;;;;19.50;16.37;;;7.80;99.90;;;;;;5045786;28;20430;-71
2021/04/30 04:05:20;;;;;;;20.50;16.20;;;7.90;99.90;;;;;;5056737;28;20575;-71
2021/04/30 04:07:45;;;;;;;20.23;17.63;;;7.90;99.90;;;;;;5050197;28;20616;-71
2021/04/30 04:10:11;;;;;;;20.97;16.37;;;7.90;99.90;;;;;;5042804;28;20203;-71
2021/04/30 04:12:38;;;;;;;19.07;16.53;;;7.90;99.90;;;;;;5045661;28;20218;-72
2021/04/30 04:15:05;;;;;;;23.20;17.13;;;8.00;99.90;;;;;;5053460;28;20434;-71
2021/04/30 04:17:30;;;;;;;19.60;17.30;;;7.80;99.90;;;;;;5056442;28;20960;-72
2021/04/30 04:19:56;;;;;;;19.93;17.10;;;7.90;99.90;;;;;;5056355;28;20425;-71
2021/04/30 04:22:21;;;;;;;21.70;18.20;;;8.00;99.90;;;;;;5056706;28;20240;-71
2021/04/30 04:24:50;;;;;;;19.40;17.30;;;8.00;99.90;;;;;;5050871;28;20184;-72
2021/04/30 04:27:16;;;;;;;26.33;18.30;;;7.90;99.90;;;;;;5046013;28;20613;-71
2021/04/30 04:29:41;;;;;;;21.37;19.07;;;8.00;99.90;;;;;;5045274;28;20531;-71
2021/04/30 04:32:07;;;;;;;25.93;19.23;;;8.00;99.90;;;;;;5049649;28;20197;-71
2021/04/30 04:34:33;;;;;;;25.47;19.30;;;8.00;99.90;;;;;;5053088;28;20662;-72
2021/04/30 04:36:59;;;;;;;26.50;21.63;;;7.90;99.90;;;;;;5052843;28;20681;-71
2021/04/30 04:39:29;;;;;;;30.23;21.27;;;7.70;99.90;;;;;;5051515;28;20214;-71
2021/04/30 04:41:55;;;;;;;25.40;19.30;;;7.60;99.90;;;;;;5053221;28;20444;-71
2021/04/30 04:44:21;;;;;;;35.13;22.87;;;7.60;99.90;;;;;;5052215;28;20470;-71
2021/04/30 04:46:46;;;;;;;32.20;21.97;;;7.60;99.90;;;;;;5051921;28;20910;-70
2021/04/30 04:49:12;;;;;;;25.63;22.17;;;7.70;99.90;;;;;;5054513;28;20214;-71
2021/04/30 04:51:37;;;;;;;31.00;22.00;;;7.60;99.90;;;;;;5056402;28;20637;-71
2021/04/30 04:54:04;;;;;;;27.83;21.50;;;7.60;99.90;;;;;;5051653;28;20321;-71
2021/04/30 04:56:30;;;;;;;33.90;20.57;;;7.60;99.90;;;;;;5054092;28;20730;-71
2021/04/30 04:58:55;;;;;;;29.63;20.60;;;7.70;99.90;;;;;;5053817;28;20555;-72
2021/04/30 05:01:22;;;;;;;29.30;21.50;;;7.70;99.90;;;;;;5056239;28;20545;-72
2021/04/30 05:03:47;;;;;;;28.90;22.80;;;7.70;99.90;;;;;;5056273;28;20162;-71
2021/04/30 05:06:13;;;;;;;26.13;21.57;;;7.60;99.90;;;;;;5055172;28;20766;-72
2021/04/30 05:08:39;;;;;;;32.80;21.97;;;7.70;99.90;;;;;;5055519;28;20611;-72
2021/04/30 05:11:05;;;;;;;30.30;19.63;;;7.70;99.90;;;;;;5060174;28;20460;-71
2021/04/30 05:13:32;;;;;;;29.33;23.03;;;7.80;99.90;;;;;;5064013;28;20424;-71
2021/04/30 05:15:58;;;;;;;25.67;20.60;;;7.80;99.90;;;;;;5075671;28;20200;-71
2021/04/30 05:19:17;;;;;;;26.57;21.40;;;7.60;99.90;;;;;;5063397;28;20492;-71
2021/04/30 05:21:46;;;;;;;30.60;22.70;;;7.70;99.90;;;;;;5061087;28;20784;-70
2021/04/30 05:24:12;;;;;;;22.27;18.93;;;7.70;99.90;;;;;;5056009;28;20418;-70
2021/04/30 05:26:38;;;;;;;26.60;20.57;;;7.70;99.90;;;;;;5056762;28;20398;-70
2021/04/30 05:29:04;;;;;;;25.00;19.33;;;7.80;99.90;;;;;;5073921;28;20449;-71
2021/04/30 05:31:30;;;;;;;21.77;17.80;;;7.90;99.90;;;;;;5055777;28;20212;-70
2021/04/30 05:33:55;;;;;;;22.67;20.00;;;7.90;99.90;;;;;;5055309;28;20490;-71
2021/04/30 05:36:21;;;;;;;25.37;20.10;;;7.90;99.90;;;;;;5056536;28;20226;-72
2021/04/30 05:38:46;;;;;;;22.60;18.70;;;7.80;99.90;;;;;;5055758;28;20187;-72
2021/04/30 05:41:12;;;;;;;23.10;18.70;;;7.80;99.90;;;;;;5055060;28;20588;-72
2021/04/30 05:43:38;;;;;;;32.47;20.10;;;7.80;99.90;;;;;;5055630;28;20176;-73
2021/04/30 05:46:03;;;;;;;24.40;18.90;;;7.90;99.90;;;;;;5055628;28;20195;-72
2021/04/30 05:48:29;;;;;;;25.80;19.33;;;7.80;99.90;;;;;;5055440;28;20253;-72
2021/04/30 05:50:54;;;;;;;21.50;17.63;;;7.90;99.90;;;;;;5053417;28;20873;-72
2021/04/30 05:53:22;;;;;;;26.83;20.10;;;7.90;99.90;;;;;;5054028;28;20193;-72
2021/04/30 05:55:48;;;;;;;30.60;20.17;;;7.90;99.90;;;;;;5054329;28;20185;-72
2021/04/30 05:58:13;;;;;;;25.60;18.90;;;8.00;99.90;;;;;;5052782;28;20412;-72
2021/04/30 06:00:39;;;;;;;25.53;20.60;;;8.00;99.90;;;;;;5052943;28;20198;-72
2021/04/30 06:03:05;;;;;;;25.43;20.30;;;8.10;99.90;;;;;;5052709;28;20182;-71
2021/04/30 06:05:30;;;;;;;26.37;19.70;;;8.10;99.90;;;;;;5052385;28;20217;-70
2021/04/30 06:07:56;;;;;;;27.43;19.87;;;8.10;99.90;;;;;;5052439;28;20186;-70
2021/04/30 06:10:21;;;;;;;22.80;19.20;;;8.20;99.90;;;;;;5052749;28;20216;-70
2021/04/30 06:12:47;;;;;;;33.17;20.80;;;8.20;99.90;;;;;;5054112;28;20265;-71
2021/04/30 06:15:13;;;;;;;28.20;22.47;;;8.10;99.90;;;;;;5054864;28;20191;-70
2021/04/30 06:17:38;;;;;;;31.43;22.13;;;8.10;99.90;;;;;;5054535;28;20368;-71
2021/04/30 06:20:05;;;;;;;32.10;23.80;;;8.10;99.90;;;;;;5054521;28;20202;-71
2021/04/30 06:22:30;;;;;;;32.60;24.33;;;8.00;99.90;;;;;;5052983;28;20613;-71
2021/04/30 06:24:56;;;;;;;32.13;22.97;;;8.10;99.90;;;;;;5054801;28;20409;-71
2021/04/30 06:27:22;;;;;;;37.20;26.10;;;8.20;99.90;;;;;;5054378;28;20181;-71
2021/04/30 06:29:47;;;;;;;33.33;24.50;;;8.30;99.90;;;;;;5054177;28;20241;-71
2021/04/30 06:32:13;;;;;;;31.13;23.30;;;8.20;99.90;;;;;;5054354;28;20719;-71
2021/04/30 06:34:38;;;;;;;35.70;24.93;;;8.20;99.90;;;;;;5055170;28;20181;-71
2021/04/30 06:37:04;;;;;;;33.80;24.77;;;8.20;99.90;;;;;;5053667;28;20199;-72
2021/04/30 06:39:30;;;;;;;34.07;24.50;;;8.20;99.90;;;;;;5054015;28;20645;-71
2021/04/30 06:41:56;;;;;;;36.53;25.60;;;8.20;99.90;;;;;;5054259;28;20172;-71
2021/04/30 06:44:22;;;;;;;33.80;25.03;;;8.20;99.90;;;;;;5054307;28;20242;-71
2021/04/30 06:46:48;;;;;;;36.60;27.40;;;8.20;99.90;;;;;;5053669;28;20445;-72
2021/04/30 06:49:14;;;;;;;36.20;25.57;;;8.20;99.90;;;;;;5053440;28;20461;-71
2021/04/30 06:51:39;;;;;;;33.70;26.70;;;8.20;99.90;;;;;;5054055;28;20185;-72
2021/04/30 06:54:05;;;;;;;41.33;29.80;;;8.20;99.90;;;;;;5053905;28;20619;-72
2021/04/30 06:56:31;;;;;;;39.20;28.17;;;8.10;99.90;;;;;;5053657;28;20215;-72
2021/04/30 06:58:57;;;;;;;39.70;28.53;;;8.00;99.90;;;;;;5053130;28;20209;-72
2021/04/30 07:01:23;;;;;;;43.57;28.17;;;8.00;99.90;;;;;;5054514;28;20405;-72
2021/04/30 07:03:50;;;;;;;46.27;29.80;;;8.00;99.90;;;;;;5054142;28;20418;-72
2021/04/30 07:06:18;;;;;;;38.90;28.87;;;8.10;99.90;;;;;;5053687;28;20416;-72
2021/04/30 07:08:43;;;;;;;39.40;27.77;;;8.20;99.90;;;;;;5052939;28;20475;-72
2021/04/30 07:11:09;;;;;;;40.20;27.87;;;8.20;99.90;;;;;;5054263;28;20515;-72
2021/04/30 07:13:35;;;;;;;42.57;27.20;;;8.30;99.90;;;;;;5053757;28;20249;-72
2021/04/30 07:16:05;;;;;;;41.93;27.70;;;8.10;99.90;;;;;;5054277;28;20423;-72
2021/04/30 07:18:31;;;;;;;42.70;26.30;;;8.20;99.90;;;;;;5053006;28;20456;-72
2021/04/30 07:20:56;;;;;;;39.70;26.17;;;8.30;99.90;;;;;;5054241;28;20423;-72
2021/04/30 07:23:22;;;;;;;41.73;26.37;;;8.40;99.90;;;;;;5054079;28;20708;-72
2021/04/30 07:25:48;;;;;;;38.03;26.30;;;8.40;99.90;;;;;;5054046;28;20170;-72
2021/04/30 07:28:14;;;;;;;39.83;27.00;;;8.50;99.90;;;;;;5053362;28;20305;-72
2021/04/30 07:30:40;;;;;;;36.70;28.00;;;8.50;99.90;;;;;;5052109;28;20474;-72
2021/04/30 07:33:05;;;;;;;38.70;27.10;;;8.60;99.90;;;;;;5053453;28;20174;-71
2021/04/30 07:35:31;;;;;;;38.93;28.20;;;8.70;99.90;;;;;;5053340;28;20438;-71
2021/04/30 07:37:56;;;;;;;43.73;29.00;;;8.60;99.90;;;;;;5053031;28;20239;-72
2021/04/30 07:40:22;;;;;;;45.60;29.87;;;8.70;99.90;;;;;;5052964;28;20584;-71
2021/04/30 07:42:47;;;;;;;43.80;28.87;;;8.60;99.90;;;;;;5053439;28;20193;-71
2021/04/30 07:45:13;;;;;;;38.77;28.50;;;8.60;99.90;;;;;;5053401;28;20590;-71
2021/04/30 07:47:39;;;;;;;43.67;27.90;;;8.60;99.90;;;;;;5053123;28;20637;-72
2021/04/30 07:50:06;;;;;;;41.53;29.77;;;8.60;99.90;;;;;;5052874;28;20434;-73
2021/04/30 07:52:32;;;;;;;41.93;28.90;;;8.70;99.90;;;;;;5053265;28;20185;-72
2021/04/30 07:55:01;;;;;;;41.80;27.43;;;8.70;99.90;;;;;;5054015;28;20413;-72
2021/04/30 07:57:29;;;;;;;40.93;28.90;;;8.70;99.90;;;;;;5053023;28;20464;-71
2021/04/30 07:59:55;;;;;;;37.40;29.10;;;8.70;99.90;;;;;;5053947;28;20426;-71
2021/04/30 08:02:21;;;;;;;41.30;28.90;;;8.80;99.90;;;;;;5052719;28;20413;-71
2021/04/30 08:04:47;;;;;;;48.50;30.23;;;8.80;99.90;;;;;;5053502;28;20174;-71
2021/04/30 08:07:13;;;;;;;50.30;30.60;;;8.90;99.90;;;;;;5053224;28;20189;-71
2021/04/30 08:09:39;;;;;;;46.20;31.70;;;8.90;99.90;;;;;;5053191;28;20428;-70
2021/04/30 08:12:04;;;;;;;45.40;29.43;;;9.00;99.90;;;;;;5052885;28;20574;-71
2021/04/30 08:14:30;;;;;;;38.40;28.00;;;9.10;99.90;;;;;;5053282;28;20186;-71
2021/04/30 08:16:56;;;;;;;47.93;29.63;;;9.00;99.90;;;;;;5053378;28;20197;-71
2021/04/30 08:19:21;;;;;;;44.07;29.50;;;9.00;99.90;;;;;;5051739;28;20268;-71
2021/04/30 08:21:47;;;;;;;46.10;29.37;;;8.90;99.90;;;;;;5053089;28;20250;-71
2021/04/30 08:24:12;;;;;;;50.10;30.40;;;8.90;99.90;;;;;;5053399;28;20178;-71
2021/04/30 08:26:38;;;;;;;42.00;28.77;;;9.00;99.90;;;;;;5053005;28;20704;-71
2021/04/30 08:29:04;;;;;;;44.43;29.83;;;9.10;99.90;;;;;;5052793;28;20692;-71
2021/04/30 08:31:29;;;;;;;46.13;30.47;;;9.10;99.90;;;;;;5051387;28;20196;-72
2021/04/30 08:33:55;;;;;;;49.20;29.00;;;9.10;99.90;;;;;;5052911;28;20188;-71
2021/04/30 08:36:21;;;;;;;45.43;30.43;;;9.10;99.90;;;;;;5052824;28;20351;-71
2021/04/30 08:38:47;;;;;;;47.00;31.10;;;9.10;99.90;;;;;;5052429;28;20994;-70
2021/04/30 08:41:15;;;;;;;49.63;30.83;;;9.10;99.90;;;;;;5053488;28;20407;-71
2021/04/30 08:43:41;;;;;;;45.23;30.93;;;9.00;99.90;;;;;;5056020;28;20424;-71
2021/04/30 08:46:06;;;;;;;43.20;29.47;;;9.00;99.90;;;;;;5056260;28;20427;-71
2021/04/30 08:48:33;;;;;;;49.63;30.60;;;9.00;99.90;;;;;;5056154;28;20906;-71
2021/04/30 08:50:59;;;;;;;47.97;30.87;;;9.10;99.90;;;;;;5056368;28;20165;-71
2021/04/30 08:53:25;;;;;;;46.53;29.70;;;9.10;99.90;;;;;;5056224;28;20412;-71
2021/04/30 08:55:52;;;;;;;49.10;30.50;;;9.10;99.90;;;;;;5055377;28;20437;-71
2021/04/30 08:58:27;;;;;;;46.67;30.60;;;9.10;99.90;;;;;;5056100;28;20550;-72
2021/04/30 09:00:54;;;;;;;45.23;30.63;;;9.00;99.90;;;;;;5056437;28;20404;-72
2021/04/30 09:03:20;;;;;;;46.63;30.27;;;9.00;99.90;;;;;;5055903;28;20491;-72
2021/04/30 09:05:48;;;;;;;45.43;30.37;;;9.10;99.90;;;;;;5055590;28;20447;-72
2021/04/30 09:08:13;;;;;;;43.60;28.50;;;9.00;99.90;;;;;;5055844;28;20650;-72
2021/04/30 09:10:47;;;;;;;45.37;32.20;;;9.00;99.90;;;;;;5055564;28;20451;-72
2021/04/30 09:13:14;;;;;;;43.60;30.20;;;8.90;99.90;;;;;;5055881;28;20189;-72
2021/04/30 09:15:42;;;;;;;42.30;30.10;;;8.90;99.90;;;;;;5055608;28;20424;-72
2021/04/30 09:18:21;;;;;;;39.80;30.00;;;9.00;99.90;;;;;;5055598;28;20509;-72
2021/04/30 09:20:48;;;;;;;45.73;29.33;;;9.10;99.90;;;;;;5055390;28;20474;-72
2021/04/30 09:23:37;;;;;;;42.97;30.20;;;9.10;99.90;;;;;;5055597;28;20428;-72
2021/04/30 09:26:20;;;;;;;42.50;30.03;;;9.20;99.90;;;;;;5055694;28;20389;-72
2021/04/30 09:29:08;;;;;;;35.97;28.27;;;9.20;99.90;;;;;;5055741;28;20424;-72
2021/04/30 09:31:39;;;;;;;36.63;28.07;;;9.20;99.90;;;;;;5055720;28;20944;-72
2021/04/30 09:34:50;;;;;;;40.63;29.10;;;9.30;99.90;;;;;;5055468;28;20448;-71
2021/04/30 09:37:17;;;;;;;48.97;30.70;;;9.20;99.90;;;;;;5054056;28;21009;-71
2021/04/30 09:39:51;;;;;;;41.33;28.80;;;9.20;99.90;;;;;;5055661;28;20424;-71
2021/04/30 09:42:18;;;;;;;39.23;28.23;;;9.20;99.90;;;;;;5054003;28;20419;-71
2021/04/30 09:44:47;;;;;;;41.53;28.97;;;9.20;99.90;;;;;;5056153;28;20413;-71
2021/04/30 09:47:25;;;;;;;44.80;28.80;;;9.10;99.90;;;;;;5056758;28;20435;-71
2021/04/30 09:49:53;;;;;;;40.00;28.20;;;9.10;99.90;;;;;;5056294;28;20441;-71
2021/04/30 09:52:21;;;;;;;47.03;31.33;;;9.20;99.90;;;;;;5057266;28;20404;-71
2021/04/30 09:54:47;;;;;;;44.87;31.20;;;8.90;99.90;;;;;;5057397;28;20506;-71
2021/04/30 09:57:21;;;;;;;46.57;32.30;;;9.00;99.90;;;;;;5056598;28;20456;-71
2021/04/30 10:00:10;;;;;;;43.23;29.97;;;8.90;99.90;;;;;;5055987;28;20436;-71
2021/04/30 10:02:37;;;;;;;42.57;28.80;;;9.00;99.90;;;;;;5055125;28;20474;-72
2021/04/30 10:05:12;;;;;;;39.80;27.80;;;9.10;99.90;;;;;;5055710;28;20424;-70
2021/04/30 10:07:39;;;;;;;43.42;31.60;;;9.00;99.90;;;;;;5054222;28;20472;-72
2021/04/30 10:10:17;;;;;;;34.60;27.33;;;9.20;99.90;;;;;;5055349;28;20202;-71
2021/04/30 10:12:47;;;;;;;37.77;27.90;;;9.20;99.90;;;;;;5054525;28;20559;-71
2021/04/30 10:15:19;;;;;;;38.60;28.20;;;9.30;99.90;;;;;;5055408;28;20396;-71
2021/04/30 10:17:46;;;;;;;43.17;28.03;;;9.20;99.90;;;;;;5054494;28;20453;-71
2021/04/30 10:20:12;;;;;;;37.97;27.20;;;9.30;99.90;;;;;;5054415;28;20482;-71
2021/04/30 10:22:41;;;;;;;35.43;26.90;;;9.30;99.90;;;;;;5054777;28;20499;-71
2021/04/30 10:25:10;;;;;;;42.47;29.17;;;9.40;99.90;;;;;;5054935;28;20401;-72
2021/04/30 10:27:43;;;;;;;44.67;30.10;;;9.40;99.90;;;;;;5054841;28;20431;-72
2021/04/30 10:30:34;;;;;;;38.40;27.97;;;9.40;99.90;;;;;;5054061;28;20464;-72
2021/04/30 10:33:29;;;;;;;37.47;27.63;;;9.40;99.90;;;;;;5055033;28;20405;-72
2021/04/30 10:36:07;;;;;;;39.50;28.80;;;9.50;99.90;;;;;;5053019;28;20431;-72
2021/04/30 10:38:42;;;;;;;38.70;27.43;;;9.50;99.90;;;;;;5052583;28;20421;-71
2021/04/30 10:41:10;;;;;;;39.10;28.63;;;9.60;99.90;;;;;;5054577;28;20473;-71
2021/04/30 10:43:37;;;;;;;31.97;24.57;;;9.60;99.90;;;;;;5054298;28;20400;-71
2021/04/30 10:46:14;;;;;;;35.30;25.73;;;9.60;99.90;;;;;;5054934;28;20833;-71
2021/04/30 10:48:58;;;;;;;30.80;24.50;;;9.50;99.90;;;;;;5053731;28;20420;-72
2021/04/30 10:51:24;;;;;;;32.77;24.90;;;9.40;99.90;;;;;;5034618;28;20429;-72
2021/04/30 10:53:49;;;;;;;34.80;26.30;;;9.40;99.90;;;;;;5033485;28;20418;-72
2021/04/30 10:56:30;;;;;;;32.40;26.53;;;9.40;99.90;;;;;;5034321;28;20217;-72
2021/04/30 10:58:56;;;;;;;32.17;24.10;;;9.50;99.90;;;;;;5033869;28;20213;-72
2021/04/30 11:01:35;;;;;;;31.50;23.87;;;9.60;99.90;;;;;;5051466;28;20535;-71
2021/04/30 11:04:09;;;;;;;31.27;24.57;;;9.60;99.90;;;;;;5053349;28;20603;-72
2021/04/30 11:06:50;;;;;;;33.33;23.10;;;9.50;99.90;;;;;;5054358;28;20606;-72
2021/04/30 11:09:29;;;;;;;31.17;23.80;;;9.40;99.90;;;;;;5054323;28;20801;-72
2021/04/30 11:12:01;;;;;;;33.33;24.47;;;9.60;99.90;;;;;;5053540;28;20538;-71
2021/04/30 11:14:29;;;;;;;31.53;23.77;;;9.70;99.90;;;;;;5055599;28;20458;-72
2021/04/30 11:16:57;;;;;;;34.70;25.87;;;9.80;99.90;;;;;;5055333;28;20463;-71
2021/04/30 11:19:30;;;;;;;33.20;24.90;;;9.90;99.90;;;;;;5053588;28;20432;-71
2021/04/30 11:22:10;;;;;;;37.27;25.80;;;10.10;99.90;;;;;;5055126;28;20415;-72
2021/04/30 11:24:40;;;;;;;29.97;22.97;;;10.20;99.90;;;;;;5056894;28;20396;-72
2021/04/30 11:27:12;;;;;;;33.40;24.17;;;10.30;99.90;;;;;;5056156;28;20416;-71
2021/04/30 11:29:39;;;;;;;33.13;24.67;;;10.40;99.90;;;;;;5056286;28;20441;-71
2021/04/30 11:32:25;;;;;;;33.10;24.30;;;10.50;99.90;;;;;;5055257;28;20419;-72
2021/04/30 11:34:59;;;;;;;38.10;27.20;;;10.60;99.90;;;;;;5053775;28;20835;-72
2021/04/30 11:37:26;;;;;;;29.37;23.33;;;10.40;99.90;;;;;;5052055;28;20576;-72
2021/04/30 11:39:56;;;;;;;32.30;24.23;;;10.40;99.90;;;;;;5052459;28;20548;-72
2021/04/30 11:42:28;;;;;;;35.07;26.33;;;10.40;99.90;;;;;;5053261;28;20841;-72
2021/04/30 11:44:54;;;;;;;38.80;26.17;;;10.40;99.90;;;;;;5053194;28;20495;-72
2021/04/30 11:47:31;;;;;;;34.93;24.50;;;10.60;99.90;;;;;;5043138;28;20708;-71
2021/04/30 11:49:59;;;;;;;37.17;25.47;;;10.60;99.90;;;;;;5036522;28;20274;-72
2021/04/30 11:52:44;;;;;;;33.20;25.17;;;10.70;99.90;;;;;;5050105;28;20488;-72
2021/04/30 11:55:16;;;;;;;31.37;22.30;;;10.80;99.90;;;;;;5049199;28;20986;-71
2021/04/30 11:57:48;;;;;;;28.00;22.43;;;10.80;99.90;;;;;;5049073;28;20463;-71
2021/04/30 12:00:27;;;;;;;29.10;21.57;;;10.90;99.90;;;;;;5048680;28;20474;-70
2021/04/30 12:03:07;;;;;;;33.63;26.90;;;10.80;99.90;;;;;;5048392;28;20411;-71
2021/04/30 12:05:33;;;;;;;29.97;23.10;;;10.90;99.90;;;;;;5048865;28;20424;-70
2021/04/30 12:08:00;;;;;;;34.53;24.53;;;10.90;99.90;;;;;;5049171;28;20424;-70
2021/04/30 12:10:28;;;;;;;35.67;24.67;;;10.80;99.90;;;;;;5047426;28;20229;-72
2021/04/30 12:16:17;;;;;;;34.57;25.13;;;10.60;99.90;;;;;;5036352;28;20567;-70
2021/04/30 12:18:44;;;;;;;36.77;25.57;;;10.80;99.90;;;;;;5046201;28;20441;-70
2021/04/30 12:21:10;;;;;;;28.93;22.57;;;11.00;99.90;;;;;;5046630;28;20806;-70
2021/04/30 12:23:36;;;;;;;29.70;21.17;;;10.90;99.90;;;;;;5053457;28;20769;-71
2021/04/30 12:26:03;;;;;;;34.47;22.60;;;10.90;99.90;;;;;;5050365;28;20747;-71
2021/04/30 12:28:30;;;;;;;31.63;21.00;;;10.60;99.90;;;;;;5052601;28;20181;-72
2021/04/30 12:31:05;;;;;;;32.77;22.43;;;10.70;99.90;;;;;;5054358;28;21038;-71
2021/04/30 12:33:51;;;;;;;27.67;21.97;;;10.60;99.90;;;;;;5054356;28;20479;-71
2021/04/30 12:36:22;;;;;;;28.47;22.10;;;10.30;99.90;;;;;;5054315;28;20957;-71
2021/04/30 12:38:53;;;;;;;28.93;22.00;;;10.10;99.90;;;;;;5054082;28;20412;-71
2021/04/30 12:41:30;;;;;;;29.80;20.80;;;10.00;99.90;;;;;;5056300;28;20888;-71
2021/04/30 12:44:00;;;;;;;30.90;20.57;;;10.10;99.90;;;;;;5056310;28;20765;-71